Time;durP1;ratioP1;P1;durP2;ratioP2;P2;SDS_P1;SDS_P2;PMS_P1;PMS_P2;Temp;Humidity;BMP_temperature;BMP_pressure;BME280_temperature;BME280_humidity;BME280_pressure;Samples;Min_cycle;Max_cycle;Signal;HPM_P1;HPM_P2
2021/12/22 00:00:58;;;;;;;6.15;3.63;;;0.90;99.90;;;;;;4916141;29;20059;-74
2021/12/22 00:03:25;;;;;;;8.98;3.65;;;0.90;99.90;;;;;;4912645;29;20129;-74
2021/12/22 00:05:52;;;;;;;6.18;3.88;;;0.80;99.90;;;;;;4902535;29;20020;-73
2021/12/22 00:08:18;;;;;;;6.22;4.00;;;0.80;99.90;;;;;;4913326;29;20036;-73
2021/12/22 00:10:45;;;;;;;8.63;3.97;;;0.80;99.90;;;;;;4902127;29;20032;-73
2021/12/22 00:13:11;;;;;;;6.13;3.70;;;0.80;99.90;;;;;;4919807;29;20111;-73
2021/12/22 00:15:37;;;;;;;8.93;3.85;;;0.80;99.90;;;;;;4924397;29;20024;-74
2021/12/22 00:18:04;;;;;;;7.50;4.38;;;0.80;99.90;;;;;;4922493;29;20026;-72
2021/12/22 00:20:30;;;;;;;8.38;4.35;;;0.80;99.90;;;;;;4914511;29;20024;-70
2021/12/22 00:22:56;;;;;;;8.20;4.47;;;0.80;99.90;;;;;;4924869;29;20341;-73
2021/12/22 00:25:25;;;;;;;8.98;4.18;;;0.80;99.90;;;;;;4915871;29;20368;-72
2021/12/22 00:27:52;;;;;;;6.60;3.75;;;0.80;99.90;;;;;;4921008;29;20396;-72
2021/12/22 00:30:18;;;;;;;9.90;4.22;;;0.80;99.90;;;;;;4907287;29;20314;-73
2021/12/22 00:32:50;;;;;;;14.60;4.05;;;0.70;99.90;;;;;;4923123;29;20032;-73
2021/12/22 00:35:19;;;;;;;6.43;3.53;;;0.70;99.90;;;;;;4915530;29;20103;-73
2021/12/22 00:37:44;;;;;;;5.93;3.53;;;0.70;99.90;;;;;;4925250;29;20072;-73
2021/12/22 00:40:10;;;;;;;7.25;4.30;;;0.70;99.90;;;;;;4910172;29;20031;-74
2021/12/22 00:42:36;;;;;;;6.32;4.60;;;0.70;99.90;;;;;;4922578;29;20020;-74
2021/12/22 00:45:03;;;;;;;7.75;4.70;;;0.70;99.90;;;;;;4906398;29;20043;-74
2021/12/22 00:47:30;;;;;;;8.02;4.22;;;0.70;99.90;;;;;;4925556;29;20063;-74
2021/12/22 00:49:56;;;;;;;6.55;4.03;;;0.60;99.90;;;;;;4929855;29;20028;-74
2021/12/22 00:52:22;;;;;;;6.68;4.25;;;0.60;99.90;;;;;;4929424;29;20032;-73
2021/12/22 00:54:49;;;;;;;8.50;4.97;;;0.60;99.90;;;;;;4920009;29;20031;-75
2021/12/22 00:57:16;;;;;;;8.98;4.40;;;0.60;99.90;;;;;;4919719;29;20206;-74
2021/12/22 00:59:43;;;;;;;7.68;4.40;;;0.60;99.90;;;;;;4928954;29;20052;-74
2021/12/22 01:02:11;;;;;;;11.75;5.30;;;0.60;99.90;;;;;;4913742;29;20236;-73
2021/12/22 01:04:38;;;;;;;9.30;4.55;;;0.60;99.90;;;;;;4927089;29;20048;-74
2021/12/22 01:07:04;;;;;;;10.80;4.55;;;0.60;99.90;;;;;;4919203;29;20035;-73
2021/12/22 01:09:30;;;;;;;12.00;4.30;;;0.50;99.90;;;;;;4918718;29;20355;-74
2021/12/22 01:11:56;;;;;;;8.07;4.63;;;0.50;99.90;;;;;;4920483;29;20103;-72
2021/12/22 01:14:22;;;;;;;11.45;5.05;;;0.50;99.90;;;;;;4906862;29;20036;-77
2021/12/22 01:16:53;;;;;;;7.78;4.63;;;0.50;99.90;;;;;;4925371;29;20079;-76
2021/12/22 01:19:31;;;;;;;10.90;4.82;;;0.50;99.90;;;;;;4908423;29;20020;-77
2021/12/22 01:22:07;;;;;;;6.97;4.20;;;0.40;99.90;;;;;;4926174;29;20275;-76
2021/12/22 01:24:34;;;;;;;13.27;5.00;;;0.50;99.90;;;;;;4908701;29;20111;-77
2021/12/22 01:27:09;;;;;;;9.05;4.93;;;0.40;99.90;;;;;;4908769;29;20024;-81
2021/12/22 01:29:38;;;;;;;13.20;4.60;;;0.40;99.90;;;;;;4925276;29;20031;-76
2021/12/22 01:32:06;;;;;;;11.50;4.70;;;0.40;99.90;;;;;;4924000;29;20100;-79
2021/12/22 01:34:32;;;;;;;7.72;4.63;;;0.40;99.90;;;;;;4919653;29;20119;-82
2021/12/22 01:36:57;;;;;;;13.25;5.65;;;0.40;99.90;;;;;;4920979;29;20314;-81
2021/12/22 01:39:23;;;;;;;8.68;5.47;;;0.40;99.90;;;;;;4924190;29;20109;-79
2021/12/22 01:41:50;;;;;;;10.32;5.22;;;0.30;99.90;;;;;;4924436;29;20020;-77
2021/12/22 01:44:49;;;;;;;7.68;4.50;;;0.40;99.90;;;;;;4924563;29;20055;-77
2021/12/22 01:50:00;;;;;;;8.90;5.07;;;0.30;99.90;;;;;;4924766;29;20027;-80
2021/12/22 01:52:25;;;;;;;8.77;4.57;;;0.30;99.90;;;;;;4923120;29;20027;-80
2021/12/22 01:55:13;;;;;;;7.65;3.72;;;0.30;99.90;;;;;;4924840;29;20228;-81
2021/12/22 01:57:47;;;;;;;9.63;3.75;;;0.20;99.90;;;;;;4907703;29;20047;-79
2021/12/22 02:00:15;;;;;;;12.82;5.35;;;0.30;99.90;;;;;;4922933;29;20024;-78
2021/12/22 02:02:40;;;;;;;10.25;6.45;;;0.20;99.90;;;;;;4924016;29;20402;-82
2021/12/22 02:05:07;;;;;;;16.55;6.80;;;0.20;99.90;;;;;;4924530;29;20068;-82
2021/12/22 02:07:33;;;;;;;9.00;4.70;;;0.20;99.90;;;;;;4922555;29;20068;-78
2021/12/22 02:12:48;;;;;;;8.73;3.72;;;0.20;99.90;;;;;;4923995;29;20066;-83
2021/12/22 02:15:14;;;;;;;8.15;3.80;;;0.20;99.90;;;;;;4920730;29;20024;-77
2021/12/22 02:17:41;;;;;;;7.07;3.95;;;0.20;99.90;;;;;;4922335;29;20028;-79
2021/12/22 02:20:08;;;;;;;8.52;4.25;;;0.20;99.90;;;;;;4923344;29;20068;-82
2021/12/22 02:25:29;;;;;;;8.23;4.03;;;0.10;99.90;;;;;;4924074;29;20164;-78
2021/12/22 02:27:55;;;;;;;12.32;4.45;;;0.10;99.90;;;;;;4924428;29;20112;-80
2021/12/22 02:30:27;;;;;;;9.68;5.38;;;0.10;99.90;;;;;;4907145;29;20103;-79
2021/12/22 02:35:41;;;;;;;6.15;4.20;;;0.10;99.90;;;;;;4923683;29;20098;-81
2021/12/22 02:38:14;;;;;;;8.40;4.80;;;0.10;99.90;;;;;;4924104;29;20016;-83
2021/12/22 02:40:41;;;;;;;11.13;4.43;;;0.00;99.90;;;;;;4923622;29;20035;-82
2021/12/22 02:43:07;;;;;;;5.32;2.92;;;0.10;99.90;;;;;;4922808;29;20028;-83
2021/12/22 02:45:34;;;;;;;10.43;5.03;;;0.10;99.90;;;;;;4923113;29;20054;-81
2021/12/22 02:48:00;;;;;;;7.80;4.03;;;0.10;99.90;;;;;;4924589;29;20092;-81
2021/12/22 02:50:26;;;;;;;10.52;4.90;;;0.10;99.90;;;;;;4922172;29;20060;-83
2021/12/22 02:53:06;;;;;;;8.60;4.93;;;0.10;99.90;;;;;;4918612;29;20231;-83
2021/12/22 02:55:49;;;;;;;10.50;5.13;;;0.10;99.90;;;;;;4922733;29;20046;-83
2021/12/22 02:58:32;;;;;;;9.07;5.00;;;0.10;99.90;;;;;;4922823;29;20043;-82
2021/12/22 03:04:13;;;;;;;13.43;5.53;;;0.00;99.90;;;;;;4923442;29;20040;-82
2021/12/22 03:06:52;;;;;;;12.98;5.43;;;0.00;99.90;;;;;;4922582;29;20028;-81
2021/12/22 03:09:20;;;;;;;14.00;5.38;;;0.00;99.90;;;;;;4922014;29;20036;-81
2021/12/22 03:11:46;;;;;;;8.63;5.47;;;0.00;99.90;;;;;;4922399;29;20078;-82
2021/12/22 03:14:14;;;;;;;12.02;5.47;;;0.00;99.90;;;;;;4923034;29;20032;-85
2021/12/22 03:16:43;;;;;;;11.10;5.72;;;0.00;99.90;;;;;;4922119;29;20099;-82
2021/12/22 03:19:14;;;;;;;11.15;5.30;;;-0.10;99.90;;;;;;4906439;29;20028;-84
2021/12/22 03:21:42;;;;;;;12.52;5.95;;;-0.10;99.90;;;;;;4923797;29;20024;-83
2021/12/22 03:24:09;;;;;;;14.43;5.50;;;-0.10;99.90;;;;;;4922230;29;20059;-84
2021/12/22 03:26:41;;;;;;;12.38;3.75;;;-0.10;99.90;;;;;;4922232;29;20106;-82
2021/12/22 03:29:08;;;;;;;11.63;5.90;;;-0.10;99.90;;;;;;4921820;29;20362;-83
2021/12/22 03:31:33;;;;;;;10.93;5.50;;;-0.10;99.90;;;;;;4922773;29;20068;-81
2021/12/22 03:33:59;;;;;;;10.10;5.53;;;-0.20;99.90;;;;;;4906021;29;20028;-80
2021/12/22 03:36:25;;;;;;;8.95;5.07;;;-0.20;99.90;;;;;;4905872;29;20020;-83
2021/12/22 03:38:51;;;;;;;13.45;5.22;;;-0.20;99.90;;;;;;4922117;29;20024;-83
2021/12/22 03:41:17;;;;;;;9.10;5.18;;;-0.20;99.90;;;;;;4923028;29;20095;-81
2021/12/22 03:43:42;;;;;;;10.60;5.85;;;-0.20;99.90;;;;;;4922329;29;20079;-82
2021/12/22 03:46:08;;;;;;;9.43;5.47;;;-0.20;99.90;;;;;;4921475;29;20188;-82
2021/12/22 03:48:34;;;;;;;7.38;3.85;;;-0.20;99.90;;;;;;4921199;29;20027;-81
2021/12/22 03:51:00;;;;;;;8.55;5.13;;;-0.20;99.90;;;;;;4922425;29;20028;-77
2021/12/22 03:53:26;;;;;;;9.00;5.40;;;-0.20;99.90;;;;;;4904801;29;20299;-82
2021/12/22 03:55:52;;;;;;;8.98;5.60;;;-0.20;99.90;;;;;;4921333;29;20051;-82
2021/12/22 03:58:19;;;;;;;11.70;6.10;;;-0.20;99.90;;;;;;4922543;29;20050;-81
2021/12/22 04:00:44;;;;;;;12.50;5.38;;;-0.20;99.90;;;;;;4921655;29;20047;-83
2021/12/22 04:03:16;;;;;;;9.52;5.68;;;-0.20;99.90;;;;;;4921364;29;20050;-84
2021/12/22 04:05:43;;;;;;;11.63;6.00;;;-0.20;99.90;;;;;;4906061;29;20072;-83
2021/12/22 04:08:31;;;;;;;8.98;5.88;;;-0.20;99.90;;;;;;4921161;29;20331;-83
2021/12/22 04:10:57;;;;;;;11.13;5.70;;;-0.20;99.90;;;;;;4921496;29;20334;-82
2021/12/22 04:13:23;;;;;;;9.88;5.60;;;-0.30;99.90;;;;;;4920824;29;20044;-81
2021/12/22 04:15:49;;;;;;;11.40;6.65;;;-0.30;99.90;;;;;;4922583;29;20024;-81
2021/12/22 04:18:17;;;;;;;10.38;5.88;;;-0.30;99.90;;;;;;4921651;29;20028;-81
2021/12/22 04:20:44;;;;;;;10.63;4.82;;;-0.30;99.90;;;;;;4921024;29;20252;-82
2021/12/22 04:23:09;;;;;;;9.80;6.07;;;-0.30;99.90;;;;;;4924622;29;20032;-83
2021/12/22 04:25:36;;;;;;;11.40;6.28;;;-0.30;99.90;;;;;;4925215;29;20063;-80
2021/12/22 04:28:06;;;;;;;11.88;5.68;;;-0.30;99.90;;;;;;4924859;29;20035;-83
2021/12/22 04:30:35;;;;;;;8.00;4.88;;;-0.30;99.90;;;;;;4925280;29;20024;-83
2021/12/22 04:33:02;;;;;;;12.93;6.32;;;-0.30;99.90;;;;;;4907926;29;20028;-82
2021/12/22 04:35:28;;;;;;;12.38;6.03;;;-0.30;99.90;;;;;;4925476;29;20144;-85
2021/12/22 04:37:54;;;;;;;12.40;6.40;;;-0.30;99.90;;;;;;4924537;29;20020;-84
2021/12/22 04:40:20;;;;;;;10.23;5.72;;;-0.30;99.90;;;;;;4924345;29;20050;-81
2021/12/22 04:42:46;;;;;;;12.50;6.55;;;-0.30;99.90;;;;;;4923892;29;20024;-81
2021/12/22 04:45:13;;;;;;;11.45;5.30;;;-0.30;99.90;;;;;;4924188;29;20080;-83
2021/12/22 04:47:39;;;;;;;10.10;6.22;;;-0.20;99.90;;;;;;4926220;29;20027;-82
2021/12/22 04:50:11;;;;;;;9.02;5.75;;;-0.30;99.90;;;;;;4924552;29;20027;-79
2021/12/22 04:53:47;;;;;;;10.43;6.28;;;-0.30;99.90;;;;;;4907396;29;20035;-79
2021/12/22 04:55:32;;;;;;;9.63;5.97;;;-0.20;99.90;;;;;;4920054;29;20179;-81
2021/12/22 04:57:59;;;;;;;9.60;6.57;;;-0.30;99.90;;;;;;4924901;29;20207;-83
2021/12/22 05:00:28;;;;;;;13.50;6.28;;;-0.30;99.90;;;;;;4924194;29;20027;-82
2021/12/22 05:02:55;;;;;;;13.30;6.78;;;-0.30;99.90;;;;;;4924372;29;20101;-82
2021/12/22 05:05:21;;;;;;;13.13;7.95;;;-0.30;99.90;;;;;;4925043;29;20030;-81
2021/12/22 05:07:47;;;;;;;13.75;7.10;;;-0.30;99.90;;;;;;4925674;29;20055;-82
2021/12/22 05:10:15;;;;;;;13.82;7.75;;;-0.30;99.90;;;;;;4908138;29;20024;-83
2021/12/22 05:12:42;;;;;;;14.63;7.40;;;-0.30;99.90;;;;;;4925948;29;20176;-83
2021/12/22 05:15:08;;;;;;;11.48;5.97;;;-0.30;99.90;;;;;;4925078;29;20287;-85
2021/12/22 05:20:10;;;;;;;12.05;7.38;;;-0.20;99.90;;;;;;4925721;29;20039;-85
2021/12/22 05:22:35;;;;;;;12.00;6.53;;;-0.20;99.90;;;;;;4924396;29;20103;-81
2021/12/22 05:25:04;;;;;;;14.65;7.43;;;-0.20;99.90;;;;;;4923681;29;20370;-81
2021/12/22 05:27:31;;;;;;;13.25;7.10;;;-0.20;99.90;;;;;;4908297;29;20307;-81
2021/12/22 05:29:57;;;;;;;13.73;5.95;;;-0.20;99.90;;;;;;4924725;29;20022;-80
2021/12/22 05:32:30;;;;;;;14.18;7.20;;;-0.20;99.90;;;;;;4907235;29;20072;-81
2021/12/22 05:34:56;;;;;;;14.68;8.35;;;-0.20;99.90;;;;;;4923632;29;20035;-80
2021/12/22 05:37:21;;;;;;;14.40;8.05;;;-0.10;99.90;;;;;;4923211;29;20195;-80
2021/12/22 05:39:47;;;;;;;12.63;7.50;;;-0.20;99.90;;;;;;4907681;29;20031;-80
2021/12/22 05:42:13;;;;;;;11.73;7.20;;;-0.20;99.90;;;;;;4907545;29;20219;-81
2021/12/22 05:44:39;;;;;;;11.98;8.00;;;-0.20;99.90;;;;;;4923896;29;20052;-82
2021/12/22 05:47:05;;;;;;;12.02;7.63;;;-0.20;99.90;;;;;;4924315;29;20359;-82
2021/12/22 05:49:49;;;;;;;15.43;6.38;;;-0.20;99.90;;;;;;4923011;29;20020;-81
2021/12/22 05:52:16;;;;;;;13.20;7.95;;;-0.20;99.90;;;;;;4923326;29;20027;-83
2021/12/22 05:54:42;;;;;;;19.40;8.43;;;-0.20;99.90;;;;;;4924471;29;20362;-83
2021/12/22 05:57:07;;;;;;;14.13;8.40;;;-0.20;99.90;;;;;;4907546;29;20035;-84
2021/12/22 05:59:33;;;;;;;12.15;7.85;;;-0.20;99.90;;;;;;4907002;29;20302;-82
2021/12/22 06:01:59;;;;;;;17.35;8.07;;;-0.20;99.90;;;;;;4923606;29;20050;-83
2021/12/22 06:04:24;;;;;;;16.17;8.57;;;-0.20;99.90;;;;;;4922858;29;20028;-83
2021/12/22 06:06:50;;;;;;;16.15;8.25;;;-0.20;99.90;;;;;;4923266;29;20028;-83
2021/12/22 06:09:16;;;;;;;13.60;7.75;;;-0.20;99.90;;;;;;4922781;29;20091;-84
2021/12/22 06:11:41;;;;;;;16.35;9.48;;;-0.20;99.90;;;;;;4922858;29;20052;-83
2021/12/22 06:14:07;;;;;;;17.42;9.07;;;-0.20;99.90;;;;;;4922796;29;20083;-83
2021/12/22 06:16:33;;;;;;;15.57;8.85;;;-0.20;99.90;;;;;;4907231;29;20032;-82
2021/12/22 06:19:03;;;;;;;14.85;6.40;;;-0.20;99.90;;;;;;4924322;29;20084;-82
2021/12/22 06:21:31;;;;;;;14.07;8.43;;;-0.20;99.90;;;;;;4907347;29;20027;-84
2021/12/22 06:23:56;;;;;;;15.52;8.18;;;-0.20;99.90;;;;;;4923752;29;20028;-84
2021/12/22 06:26:23;;;;;;;15.32;6.70;;;-0.20;99.90;;;;;;4923192;29;20350;-89
2021/12/22 06:28:50;;;;;;;13.88;8.23;;;-0.20;99.90;;;;;;4924678;29;20168;-85
2021/12/22 06:31:15;;;;;;;14.35;7.97;;;-0.20;99.90;;;;;;4906426;29;20058;-82
2021/12/22 06:33:41;;;;;;;12.02;6.18;;;-0.20;99.90;;;;;;4925648;29;20028;-84
2021/12/22 06:36:07;;;;;;;9.77;6.60;;;-0.20;99.90;;;;;;4924825;29;20021;-83
2021/12/22 06:38:33;;;;;;;17.50;8.68;;;-0.20;99.90;;;;;;4925037;29;20046;-85
2021/12/22 06:40:59;;;;;;;11.98;6.35;;;-0.20;99.90;;;;;;4908057;29;20062;-83
2021/12/22 06:43:25;;;;;;;19.10;8.80;;;-0.20;99.90;;;;;;4924151;29;20035;-80
2021/12/22 06:45:51;;;;;;;16.88;7.97;;;-0.20;99.90;;;;;;4925054;29;20362;-85
2021/12/22 06:48:18;;;;;;;15.43;8.85;;;-0.20;99.90;;;;;;4925052;29;20031;-89
2021/12/22 06:50:43;;;;;;;19.40;8.98;;;-0.20;99.90;;;;;;4907746;29;20115;-85
2021/12/22 06:53:09;;;;;;;17.95;10.10;;;-0.20;99.90;;;;;;4906242;29;20055;-82
2021/12/22 06:55:35;;;;;;;16.13;9.48;;;-0.20;99.90;;;;;;4923844;29;20127;-82
2021/12/22 06:58:01;;;;;;;12.82;7.50;;;-0.20;99.90;;;;;;4907580;29;20026;-86
2021/12/22 07:00:27;;;;;;;21.00;9.13;;;-0.20;99.90;;;;;;4907546;29;20048;-78
2021/12/22 07:02:54;;;;;;;14.90;9.43;;;-0.20;99.90;;;;;;4922937;29;20035;-85
2021/12/22 07:05:20;;;;;;;17.45;9.32;;;-0.20;99.90;;;;;;4922234;29;20079;-82
2021/12/22 07:07:46;;;;;;;18.63;10.55;;;-0.20;99.90;;;;;;4922070;29;20024;-78
2021/12/22 07:10:12;;;;;;;15.68;9.80;;;-0.20;99.90;;;;;;4906318;29;20330;-81
2021/12/22 07:12:42;;;;;;;18.83;10.57;;;-0.10;99.90;;;;;;4925027;29;20060;-84
2021/12/22 07:15:13;;;;;;;22.05;11.77;;;-0.20;99.90;;;;;;4923872;29;20283;-84
2021/12/22 07:17:40;;;;;;;20.85;10.75;;;-0.10;99.90;;;;;;4908694;29;20067;-83
2021/12/22 07:20:07;;;;;;;18.45;10.57;;;-0.10;99.90;;;;;;4923867;29;20020;-85
2021/12/22 07:22:33;;;;;;;18.85;10.45;;;-0.10;99.90;;;;;;4923712;29;20211;-84
2021/12/22 07:25:00;;;;;;;19.38;10.82;;;-0.10;99.90;;;;;;4924727;29;20020;-86
2021/12/22 07:27:25;;;;;;;29.83;12.43;;;-0.10;99.90;;;;;;4925481;29;20131;-84
2021/12/22 07:29:51;;;;;;;18.10;10.45;;;-0.10;99.90;;;;;;4925102;29;20028;-87
2021/12/22 07:32:17;;;;;;;23.77;12.10;;;-0.10;99.90;;;;;;4924464;29;20301;-82
2021/12/22 07:34:47;;;;;;;15.88;9.85;;;-0.10;99.90;;;;;;4923432;29;20341;-84
2021/12/22 07:37:55;;;;;;;17.10;10.68;;;-0.10;99.90;;;;;;4923244;29;20060;-84
2021/12/22 07:40:20;;;;;;;18.50;10.77;;;-0.10;99.90;;;;;;4917336;29;20220;-84
2021/12/22 07:42:46;;;;;;;19.92;10.25;;;0.00;99.90;;;;;;4923849;29;20036;-83
2021/12/22 07:45:12;;;;;;;19.38;10.32;;;0.00;99.90;;;;;;4923433;29;20027;-84
2021/12/22 07:47:39;;;;;;;15.98;9.68;;;0.00;99.90;;;;;;4908936;29;20024;-84
2021/12/22 07:50:06;;;;;;;19.75;9.88;;;0.00;99.90;;;;;;4923758;29;20076;-83
2021/12/22 07:52:32;;;;;;;20.20;11.02;;;0.00;99.90;;;;;;4907611;29;20024;-84
2021/12/22 07:54:59;;;;;;;20.35;9.57;;;0.00;99.90;;;;;;4923343;29;20082;-83
2021/12/22 07:57:25;;;;;;;21.27;10.52;;;0.00;99.90;;;;;;4923848;29;20024;-84
2021/12/22 07:59:50;;;;;;;18.48;10.70;;;0.00;99.90;;;;;;4907808;29;20317;-82
2021/12/22 08:02:16;;;;;;;21.02;10.75;;;0.10;99.90;;;;;;4924647;29;20035;-85
2021/12/22 08:04:42;;;;;;;19.23;9.57;;;0.10;99.90;;;;;;4925729;29;20059;-86
2021/12/22 08:07:08;;;;;;;18.77;9.88;;;0.00;99.90;;;;;;4926197;29;20035;-84
2021/12/22 08:09:34;;;;;;;24.38;9.63;;;0.00;99.90;;;;;;4908909;29;20048;-87
2021/12/22 08:12:05;;;;;;;13.65;8.75;;;0.10;99.90;;;;;;4910599;29;20107;-88
2021/12/22 08:14:36;;;;;;;16.40;9.90;;;0.10;99.90;;;;;;4926597;29;20036;-86
2021/12/22 08:17:03;;;;;;;14.20;8.63;;;0.10;99.90;;;;;;4924334;29;20087;-86
2021/12/22 08:19:28;;;;;;;15.48;8.80;;;0.00;99.90;;;;;;4925234;29;20024;-85
2021/12/22 08:21:55;;;;;;;20.13;10.00;;;0.10;99.90;;;;;;4925506;29;20067;-84
2021/12/22 08:24:22;;;;;;;20.85;9.82;;;0.10;99.90;;;;;;4922875;29;20147;-85
2021/12/22 08:26:47;;;;;;;15.75;9.20;;;0.10;99.90;;;;;;4923121;29;20035;-85
2021/12/22 08:29:13;;;;;;;18.77;10.60;;;0.10;99.90;;;;;;4923557;29;20016;-84
2021/12/22 08:31:39;;;;;;;15.05;7.65;;;0.20;99.90;;;;;;4924149;29;20083;-85
2021/12/22 08:34:06;;;;;;;15.13;9.60;;;0.20;99.90;;;;;;4922501;29;20028;-86
2021/12/22 08:39:17;;;;;;;15.80;10.43;;;0.10;99.90;;;;;;4922178;29;20035;-81
2021/12/22 08:41:47;;;;;;;18.15;10.50;;;0.20;99.90;;;;;;4921508;29;20103;-80
2021/12/22 08:44:16;;;;;;;17.58;9.00;;;0.10;99.90;;;;;;4920604;29;20031;-81
2021/12/22 08:46:43;;;;;;;;;;;0.20;99.90;;;;;;4923417;29;20040;-83
2021/12/22 08:49:09;;;;;;;19.77;10.30;;;0.20;99.90;;;;;;4921575;29;19903;-84
2021/12/22 08:51:35;;;;;;;21.52;11.05;;;0.20;99.90;;;;;;4922144;29;20063;-83
2021/12/22 08:54:02;;;;;;;21.23;11.65;;;0.20;99.90;;;;;;4921929;29;20035;-83
2021/12/22 08:56:29;;;;;;;18.17;10.68;;;0.20;99.90;;;;;;4922607;29;20032;-84
2021/12/22 08:58:55;;;;;;;23.33;11.77;;;0.20;99.90;;;;;;4922039;29;20087;-83
2021/12/22 09:01:22;;;;;;;18.85;10.43;;;0.30;99.90;;;;;;4906200;29;20024;-83
2021/12/22 09:03:48;;;;;;;21.73;11.85;;;0.30;99.90;;;;;;4922161;29;20028;-85
2021/12/22 09:06:14;;;;;;;19.75;12.02;;;0.30;99.90;;;;;;4921542;29;20028;-84
2021/12/22 09:08:41;;;;;;;26.40;16.17;;;0.40;99.90;;;;;;4924542;29;20051;-83
2021/12/22 09:11:07;;;;;;;23.38;11.65;;;0.40;99.90;;;;;;4922036;29;20079;-83
2021/12/22 09:13:35;;;;;;;19.73;11.02;;;0.40;99.90;;;;;;4921853;29;20033;-84
2021/12/22 09:16:02;;;;;;;19.42;7.75;;;0.50;99.90;;;;;;4922536;29;20103;-85
2021/12/22 09:18:27;;;;;;;25.45;12.70;;;0.50;99.90;;;;;;4905915;29;20063;-83
2021/12/22 09:20:53;;;;;;;21.05;12.18;;;0.50;99.90;;;;;;4921670;29;20020;-82
2021/12/22 09:23:19;;;;;;;22.20;11.85;;;0.60;99.90;;;;;;4906420;29;20304;-81
2021/12/22 09:25:45;;;;;;;22.13;12.50;;;0.70;99.90;;;;;;4922906;29;20021;-86
2021/12/22 09:28:12;;;;;;;19.45;12.13;;;0.80;99.90;;;;;;4908175;29;20192;-86
2021/12/22 09:30:39;;;;;;;22.30;12.25;;;0.80;99.90;;;;;;4922905;29;20020;-86
2021/12/22 09:33:08;;;;;;;18.65;11.25;;;0.80;99.90;;;;;;4921319;29;20307;-84
2021/12/22 09:35:34;;;;;;;17.55;12.30;;;0.80;99.90;;;;;;4921792;29;20024;-85
2021/12/22 09:38:00;;;;;;;23.90;13.10;;;0.80;99.90;;;;;;4922681;29;20032;-86
2021/12/22 09:40:26;;;;;;;29.75;12.40;;;0.80;99.90;;;;;;4922413;29;20069;-85
2021/12/22 09:42:52;;;;;;;20.15;11.80;;;0.70;99.90;;;;;;4907449;29;20087;-84
2021/12/22 09:45:20;;;;;;;20.88;12.00;;;0.70;99.90;;;;;;4906795;29;20020;-83
2021/12/22 09:50:51;;;;;;;22.33;12.07;;;0.70;99.90;;;;;;4897048;29;20037;-83
2021/12/22 09:53:20;;;;;;;25.15;13.48;;;0.70;99.90;;;;;;4920631;29;20032;-83
2021/12/22 09:55:47;;;;;;;21.77;11.63;;;0.70;99.90;;;;;;4921018;29;20063;-82
2021/12/22 09:58:14;;;;;;;27.35;11.98;;;0.70;99.90;;;;;;4920562;29;20032;-81
2021/12/22 10:00:41;;;;;;;21.02;12.60;;;0.70;99.90;;;;;;4921652;29;20020;-85
2021/12/22 10:03:08;;;;;;;20.45;12.65;;;0.70;99.90;;;;;;4920482;29;20028;-76
2021/12/22 10:05:36;;;;;;;22.58;12.15;;;0.70;99.90;;;;;;4920914;29;20096;-77
2021/12/22 10:08:08;;;;;;;25.50;13.17;;;0.70;99.90;;;;;;4920707;29;20024;-76
2021/12/22 10:10:40;;;;;;;24.45;13.27;;;0.70;99.90;;;;;;4920509;29;20281;-72
2021/12/22 10:13:14;;;;;;;24.55;12.75;;;0.70;99.90;;;;;;4924362;29;20023;-71
2021/12/22 10:15:40;;;;;;;21.92;12.20;;;0.70;99.90;;;;;;4908025;29;20024;-78
2021/12/22 10:18:08;;;;;;;20.48;12.38;;;0.70;99.90;;;;;;4923148;29;20024;-78
2021/12/22 10:20:34;;;;;;;25.15;13.02;;;0.70;99.90;;;;;;4907285;29;20020;-81
2021/12/22 10:23:00;;;;;;;19.25;12.75;;;0.60;99.90;;;;;;4925400;29;20072;-73
2021/12/22 10:25:29;;;;;;;21.40;13.25;;;0.60;99.90;;;;;;4923905;29;20187;-79
2021/12/22 10:28:01;;;;;;;25.42;12.70;;;0.60;99.90;;;;;;4924187;29;20032;-80
2021/12/22 10:30:34;;;;;;;21.45;12.32;;;0.50;99.90;;;;;;4908846;29;20032;-82
2021/12/22 10:33:19;;;;;;;22.48;12.18;;;0.50;99.90;;;;;;4924725;29;20031;-83
2021/12/22 10:35:48;;;;;;;24.17;13.48;;;0.50;99.90;;;;;;4924888;29;20028;-83
2021/12/22 10:38:18;;;;;;;27.95;13.30;;;0.50;99.90;;;;;;4925862;29;20016;-82
2021/12/22 10:40:46;;;;;;;23.50;14.00;;;0.50;99.90;;;;;;4924820;29;20052;-82
2021/12/22 10:43:34;;;;;;;21.95;13.27;;;0.50;99.90;;;;;;4924456;29;20188;-82
2021/12/22 10:46:03;;;;;;;29.35;14.27;;;0.60;99.90;;;;;;4924677;29;20158;-83
2021/12/22 10:51:30;;;;;;;29.17;13.40;;;0.60;99.90;;;;;;4925241;29;20146;-83
2021/12/22 10:53:56;;;;;;;19.85;11.30;;;0.60;99.90;;;;;;4908668;29;20074;-84
2021/12/22 10:56:33;;;;;;;24.00;14.48;;;0.60;99.90;;;;;;4925474;29;20028;-85
2021/12/22 10:59:10;;;;;;;24.35;14.05;;;0.60;99.90;;;;;;4925617;29;20054;-82
2021/12/22 11:02:05;;;;;;;22.70;14.10;;;0.60;99.90;;;;;;4908556;29;20107;-82
2021/12/22 11:04:33;;;;;;;27.48;15.15;;;0.70;99.90;;;;;;4924314;29;20100;-89
2021/12/22 11:07:08;;;;;;;32.63;15.20;;;0.70;99.90;;;;;;4924604;29;20220;-83
2021/12/22 11:09:36;;;;;;;25.38;14.32;;;0.70;99.90;;;;;;4924130;29;20023;-75
2021/12/22 11:12:04;;;;;;;27.95;15.40;;;0.70;99.90;;;;;;4924994;29;20123;-84
2021/12/22 11:14:38;;;;;;;29.20;15.30;;;0.70;99.90;;;;;;4908135;29;20032;-86
2021/12/22 11:17:06;;;;;;;26.38;15.15;;;0.70;99.90;;;;;;4924666;29;20028;-85
2021/12/22 11:19:58;;;;;;;30.20;16.93;;;0.70;99.90;;;;;;4925649;29;20016;-86
2021/12/22 11:23:04;;;;;;;28.77;16.05;;;0.70;99.90;;;;;;4908177;29;20310;-84
2021/12/22 11:25:31;;;;;;;29.55;15.05;;;0.80;99.90;;;;;;4866770;29;20032;-84
2021/12/22 11:27:57;;;;;;;23.13;14.00;;;0.80;99.90;;;;;;4914717;29;20102;-84
2021/12/22 11:30:26;;;;;;;28.10;15.82;;;0.70;99.90;;;;;;4923557;29;20024;-85
2021/12/22 11:32:54;;;;;;;24.60;15.02;;;0.70;99.90;;;;;;4925306;29;20016;-85
2021/12/22 11:35:22;;;;;;;24.80;14.85;;;0.80;99.90;;;;;;4924888;29;20028;-84
2021/12/22 11:37:49;;;;;;;25.10;14.88;;;0.80;99.90;;;;;;4908433;29;20024;-85
2021/12/22 11:40:21;;;;;;;30.25;16.23;;;0.80;99.90;;;;;;4923768;29;20092;-82
2021/12/22 11:42:47;;;;;;;32.63;15.23;;;0.90;99.90;;;;;;4908339;29;20059;-84
2021/12/22 11:45:12;;;;;;;26.05;15.20;;;0.90;99.90;;;;;;4924789;29;20023;-84
2021/12/22 11:47:42;;;;;;;27.45;14.52;;;0.90;99.90;;;;;;4924709;29;20044;-84
2021/12/22 11:50:35;;;;;;;29.50;16.95;;;0.90;99.90;;;;;;4924385;29;20016;-84
2021/12/22 11:53:08;;;;;;;27.02;15.35;;;0.90;99.90;;;;;;4924648;29;20043;-84
2021/12/22 11:55:55;;;;;;;31.50;15.63;;;0.90;99.90;;;;;;4923913;29;20307;-85
2021/12/22 11:58:27;;;;;;;28.38;15.15;;;0.90;99.90;;;;;;4923325;29;20024;-89
2021/12/22 12:00:55;;;;;;;29.55;15.23;;;0.90;99.90;;;;;;4922289;29;20083;-84
2021/12/22 12:03:36;;;;;;;31.17;15.60;;;0.90;99.90;;;;;;4907401;29;20035;-88
2021/12/22 12:06:16;;;;;;;29.75;16.67;;;0.90;99.90;;;;;;4907997;29;20032;-85
2021/12/22 12:08:47;;;;;;;29.45;15.48;;;0.90;99.90;;;;;;4923025;29;20043;-86
2021/12/22 12:11:38;;;;;;;30.10;16.77;;;0.90;99.90;;;;;;4923240;29;20140;-86
2021/12/22 12:14:23;;;;;;;33.35;18.25;;;0.90;99.90;;;;;;4915305;29;20032;-84
2021/12/22 12:22:33;;;;;;;27.58;15.88;;;1.00;99.90;;;;;;4924733;29;20058;-83
2021/12/22 12:25:00;;;;;;;27.35;16.27;;;1.10;99.90;;;;;;4923759;29;20028;-85
2021/12/22 12:27:47;;;;;;;29.80;15.98;;;1.10;99.90;;;;;;4923895;29;20020;-84
2021/12/22 12:30:14;;;;;;;32.47;16.52;;;1.10;99.90;;;;;;4923925;29;20043;-85
2021/12/22 12:32:40;;;;;;;28.33;16.57;;;1.10;99.90;;;;;;4908111;29;20040;-86
2021/12/22 12:35:37;;;;;;;45.10;25.85;;;1.10;99.90;;;;;;4907906;29;20076;-84
2021/12/22 12:38:17;;;;;;;31.02;18.08;;;1.10;99.90;;;;;;4923605;29;20068;-85
2021/12/22 12:41:00;;;;;;;29.17;15.98;;;1.10;99.90;;;;;;4923826;29;20027;-84
2021/12/22 12:46:35;;;;;;;29.25;16.52;;;1.10;99.90;;;;;;4928262;29;20470;-84
2021/12/22 12:49:07;;;;;;;36.08;17.40;;;1.10;99.90;;;;;;4926486;29;20196;-83
2021/12/22 12:51:42;;;;;;;28.02;16.88;;;1.10;99.90;;;;;;4910681;29;20024;-74
2021/12/22 12:54:25;;;;;;;33.80;17.65;;;1.20;99.90;;;;;;4909590;29;20333;-79
2021/12/22 12:56:55;;;;;;;29.42;16.63;;;1.10;99.90;;;;;;4926199;29;20215;-78
2021/12/22 12:59:26;;;;;;;35.92;19.75;;;1.20;99.90;;;;;;4926006;29;20214;-77
2021/12/22 13:02:11;;;;;;;32.45;18.13;;;1.10;99.90;;;;;;4926099;29;20032;-77
2021/12/22 13:04:42;;;;;;;31.60;18.25;;;1.20;99.90;;;;;;4925974;29;20024;-76
2021/12/22 13:07:09;;;;;;;30.02;17.77;;;1.20;99.90;;;;;;4924543;29;20030;-79
2021/12/22 13:09:40;;;;;;;29.92;17.77;;;1.20;99.90;;;;;;4908872;29;20020;-77
2021/12/22 13:17:30;;;;;;;33.83;17.75;;;1.20;99.90;;;;;;4926218;29;20074;-84
2021/12/22 13:19:57;;;;;;;34.30;20.13;;;1.20;99.90;;;;;;4924345;29;20024;-75
2021/12/22 13:22:29;;;;;;;28.65;16.83;;;1.30;99.90;;;;;;4908288;29;20099;-73
2021/12/22 13:25:31;;;;;;;29.92;16.45;;;1.20;99.90;;;;;;4925511;29;20036;-72
2021/12/22 13:28:04;;;;;;;38.83;19.25;;;1.20;99.90;;;;;;4899463;29;20144;-76
2021/12/22 13:30:41;;;;;;;31.75;18.05;;;1.30;99.90;;;;;;4925587;29;20024;-76